CDT,Max TemperatureF,Mean TemperatureF,Min TemperatureF,Max Dew PointF,MeanDew PointF,Min DewpointF,Max Humidity, Mean Humidity, Min Humidity, Max Sea Level PressureIn, Mean Sea Level PressureIn, Min Sea Level PressureIn, Max VisibilityMiles, Mean VisibilityMiles, Min VisibilityMiles, Max Wind SpeedMPH, Mean Wind SpeedMPH, Max Gust SpeedMPH,PrecipitationIn, CloudCover, Events, WindDirDegrees
2013-9-1,62,56,50,63,56,48,100,97,94,30.05,29.87,29.68,10,9,1,13,3,20,0.01,7,Rain,337
2013-9-2,69,54,39,55,47,37,100,81,46,30.13,30.08,30.04,10,10,7,8,4,,0.00,4,,8
2013-9-3,80,56,33,61,49,34,100,74,42,30.05,29.97,29.89,10,10,10,9,2,16,0.00,1,,235
2013-9-4,69,55,41,57,44,36,87,65,28,30.23,30.16,29.99,10,10,10,8,3,,0.00,1,,350
2013-9-5,77,55,33,55,43,32,100,70,29,30.30,30.21,30.09,10,10,10,8,1,,0.00,0,,179
2013-9-6,84,68,51,72,62,48,100,80,58,30.08,29.96,29.87,10,9,2,6,2,,0.00,1,Rain-Thunderstorm,181
2013-9-7,78,62,46,66,55,43,100,75,39,30.17,30.04,29.90,10,8,0,8,2,,0.00,1,Fog,6
2013-9-8,71,55,39,55,49,37,100,79,50,30.19,30.09,29.93,10,10,3,7,1,,0.00,2,,155
2013-9-9,66,62,57,64,59,54,100,95,88,29.93,29.78,29.70,10,6,1,4,0,,0.23,8,Rain-Thunderstorm,150
2013-9-10,69,61,53,66,61,52,100,95,88,29.92,29.83,29.71,10,6,0,5,1,,0.05,7,Fog-Rain,297
2013-9-11,73,58,42,64,52,41,100,82,46,30.10,29.98,29.89,10,8,0,14,3,24,0.05,3,Fog-Rain-Thunderstorm,317
2013-9-12,60,48,37,52,44,36,100,82,52,30.27,30.21,30.11,10,10,2,10,3,17,0.00,3,,344
2013-9-13,69,53,37,52,44,37,100,76,46,30.27,30.18,30.02,10,10,10,8,1,,0.00,3,,196
2013-9-14,73,58,42,57,51,39,100,80,53,30.02,29.92,29.84,10,9,2,12,4,20,0.20,3,Rain,192
2013-9-15,60,46,30,54,44,28,100,84,42,30.36,30.21,29.97,10,10,3,9,4,,0.00,4,Rain,5
2013-9-16,66,46,26,48,35,25,100,75,37,30.42,30.34,30.24,10,10,7,7,1,,0.00,0,,186
2013-9-17,69,50,32,52,44,30,100,74,43,30.24,30.08,29.93,10,10,2,13,4,22,0.00,2,,165
2013-9-18,66,60,55,61,57,52,94,90,82,29.92,29.82,29.75,10,10,7,7,2,,0.00,8,,151
2013-9-19,69,64,59,68,63,57,100,97,88,29.76,29.71,29.66,10,5,0,7,1,18,0.28,7,Rain-Thunderstorm,177
2013-9-20,60,52,42,61,50,41,100,96,88,29.89,29.79,29.72,10,9,2,10,4,18,0.09,8,Rain,305
2013-9-21,55,42,30,52,40,28,100,92,71,30.00,29.96,29.89,10,10,10,8,3,,0.00,3,,339
2013-9-22,64,45,26,54,38,25,100,81,45,30.03,29.97,29.90,10,10,10,8,2,16,0.00,0,,142
2013-9-23,73,58,44,52,48,41,100,74,41,29.94,29.90,29.87,10,10,10,13,4,23,0.00,0,,152
2013-9-24,75,60,46,55,50,45,100,77,44,29.97,29.95,29.93,10,10,10,9,4,,0.00,0,,176
2013-9-25,73,56,39,61,46,37,100,77,41,30.00,29.97,29.91,10,9,3,8,1,,0.00,0,,162
2013-9-26,75,60,44,57,51,43,100,78,50,29.98,29.94,29.87,10,9,2,10,2,21,0.00,1,,147
2013-9-27,77,66,55,64,59,50,100,81,57,29.93,29.85,29.76,10,10,5,13,6,24,0.08,1,Rain-Thunderstorm,160
2013-9-28,69,56,44,61,54,43,100,85,73,29.83,29.66,29.47,10,9,2,13,7,23,0.13,6,Rain,188
2013-9-29,71,54,37,52,43,36,100,72,31,29.86,29.81,29.71,10,10,7,12,3,18,0.00,1,,180
2013-9-30,75,66,57,50,47,46,67,57,38,29.70,29.60,29.55,10,10,10,12,7,21,0.00,0,,175